createdAt,value
2023-04-08T00:02:11.802Z,5.00
2023-04-08T00:04:38.505Z,4.98
2023-04-08T00:07:06.013Z,4.98
2023-04-08T00:09:32.608Z,4.97
2023-04-08T00:11:59.365Z,4.94
2023-04-08T00:14:25.924Z,4.91
2023-04-08T00:16:52.516Z,4.86
2023-04-08T00:19:19.159Z,4.84
2023-04-08T00:21:45.759Z,4.86
2023-04-08T00:24:12.319Z,4.84
2023-04-08T00:26:39.150Z,4.83
2023-04-08T00:29:05.723Z,4.79
2023-04-08T00:31:32.258Z,4.74
2023-04-08T00:33:58.926Z,4.69
2023-04-08T00:36:27.709Z,4.65
2023-04-08T00:38:54.262Z,4.59
2023-04-08T00:41:20.914Z,4.57
2023-04-08T00:43:47.451Z,4.54
2023-04-08T00:46:14.179Z,4.51
2023-04-08T00:48:40.862Z,4.46
2023-04-08T00:51:08.033Z,4.47
2023-04-08T00:53:34.576Z,4.46
2023-04-08T00:56:01.628Z,4.43
2023-04-08T00:58:29.247Z,4.42
2023-04-08T01:01:00.735Z,4.37
2023-04-08T01:03:34.181Z,4.33
2023-04-08T01:06:07.055Z,4.26
2023-04-08T01:08:37.662Z,4.21
2023-04-08T01:11:06.085Z,4.18
2023-04-08T01:13:37.548Z,4.13
2023-04-08T01:16:04.475Z,4.09
2023-04-08T01:18:32.088Z,4.05
2023-04-08T01:20:59.288Z,4.01
2023-04-08T01:23:25.896Z,4.00
2023-04-08T01:25:56.062Z,4.01
2023-04-08T01:28:23.799Z,4.00
2023-04-08T01:30:51.540Z,3.96
2023-04-08T01:33:19.045Z,3.95
2023-04-08T01:35:46.199Z,3.93
2023-04-08T01:38:15.558Z,3.94
2023-04-08T01:40:42.524Z,3.96
2023-04-08T01:43:09.970Z,3.99
2023-04-08T01:45:36.682Z,3.99
2023-04-08T01:48:03.866Z,4.01
2023-04-08T01:50:31.179Z,4.00
2023-04-08T01:52:59.248Z,3.98
2023-04-08T01:55:26.988Z,3.95
2023-04-08T01:57:54.350Z,3.92
2023-04-08T02:00:22.908Z,3.89
2023-04-08T02:02:49.821Z,3.89
2023-04-08T02:05:16.703Z,3.85
2023-04-08T02:07:43.337Z,3.80
2023-04-08T02:10:10.081Z,3.78
2023-04-08T02:12:36.837Z,3.76
2023-04-08T02:15:03.765Z,3.73
2023-04-08T02:17:41.374Z,3.69
2023-04-08T02:20:10.114Z,3.67
2023-04-08T02:22:43.702Z,3.61
2023-04-08T02:25:13.271Z,3.58
2023-04-08T02:27:40.901Z,3.55
2023-04-08T02:30:08.714Z,3.53
2023-04-08T02:32:35.468Z,3.52
2023-04-08T02:35:03.844Z,3.49
2023-04-08T02:37:31.239Z,3.48
2023-04-08T02:39:58.324Z,3.51
2023-04-08T02:42:24.897Z,3.57
2023-04-08T02:44:51.654Z,3.53
2023-04-08T02:47:18.331Z,3.55
2023-04-08T02:49:44.878Z,3.57
2023-04-08T02:52:11.454Z,3.59
2023-04-08T02:54:38.029Z,3.54
2023-04-08T02:57:04.554Z,3.46
2023-04-08T02:59:31.097Z,3.43
2023-04-08T03:01:57.714Z,3.48
2023-04-08T03:04:24.290Z,3.54
2023-04-08T03:06:50.974Z,3.50
2023-04-08T03:09:17.531Z,3.47
2023-04-08T03:11:44.897Z,3.44
2023-04-08T03:14:11.649Z,3.39
2023-04-08T03:16:38.236Z,3.34
2023-04-08T03:19:04.832Z,3.38
2023-04-08T03:21:31.897Z,3.40
2023-04-08T03:23:58.460Z,3.46
2023-04-08T03:26:27.136Z,3.46
2023-04-08T03:28:53.700Z,3.60
2023-04-08T03:31:21.387Z,3.72
2023-04-08T03:33:48.088Z,3.73
2023-04-08T03:36:14.627Z,3.68
2023-04-08T03:38:41.211Z,3.62
2023-04-08T03:41:07.868Z,3.63
2023-04-08T03:43:36.796Z,3.59
2023-04-08T03:46:04.487Z,3.56
2023-04-08T03:48:31.101Z,3.55
2023-04-08T03:50:57.781Z,3.55
2023-04-08T03:53:24.357Z,3.52
2023-04-08T03:55:51.195Z,3.50
2023-04-08T03:58:17.826Z,3.57
2023-04-08T04:00:44.461Z,3.75
2023-04-08T04:03:13.284Z,3.78
2023-04-08T04:05:40.412Z,3.75
2023-04-08T04:08:07.467Z,3.79
2023-04-08T04:10:34.009Z,3.81
2023-04-08T04:13:00.576Z,3.83
2023-04-08T04:15:27.288Z,3.80
2023-04-08T04:17:53.928Z,3.75
2023-04-08T04:20:21.861Z,3.72
2023-04-08T04:22:48.419Z,3.69
2023-04-08T04:25:15.035Z,3.74
2023-04-08T04:27:41.610Z,3.86
2023-04-08T04:30:09.481Z,3.94
2023-04-08T04:32:36.091Z,4.03
2023-04-08T04:35:02.813Z,3.99
2023-04-08T04:37:29.961Z,3.95
2023-04-08T04:39:56.627Z,3.92
2023-04-08T04:42:23.257Z,3.90
2023-04-08T04:44:49.781Z,3.90
2023-04-08T04:47:16.660Z,3.91
2023-04-08T04:49:43.292Z,3.94
2023-04-08T04:52:09.854Z,3.99
2023-04-08T04:54:36.447Z,4.01
2023-04-08T04:57:03.216Z,4.02
2023-04-08T04:59:29.723Z,4.05
2023-04-08T05:01:57.913Z,4.07
2023-04-08T05:04:25.082Z,4.10
2023-04-08T05:06:51.716Z,4.16
2023-04-08T05:09:18.245Z,4.24
2023-04-08T05:11:44.780Z,4.27
2023-04-08T05:14:11.403Z,4.32
2023-04-08T05:16:38.836Z,4.37
2023-04-08T05:19:05.456Z,4.42
2023-04-08T05:21:32.698Z,4.45
2023-04-08T05:23:59.405Z,4.49
2023-04-08T05:26:26.386Z,4.54
2023-04-08T05:28:53.045Z,4.71
2023-04-08T05:31:20.655Z,4.88
2023-04-08T05:33:47.779Z,4.90
2023-04-08T05:36:14.748Z,4.90
2023-04-08T05:38:43.262Z,4.88
2023-04-08T05:41:09.900Z,4.93
2023-04-08T05:43:36.682Z,5.03
2023-04-08T05:46:10.312Z,5.09
2023-04-08T05:48:36.976Z,5.13
2023-04-08T05:51:03.658Z,5.16
2023-04-08T05:53:30.223Z,5.20
2023-04-08T05:55:56.791Z,5.28
2023-04-08T05:58:23.422Z,5.33
2023-04-08T06:00:49.954Z,5.32
2023-04-08T06:03:18.935Z,5.33
2023-04-08T06:05:46.972Z,5.46
2023-04-08T06:08:13.808Z,5.54
2023-04-08T06:10:40.425Z,5.63
2023-04-08T06:13:07.045Z,5.72
2023-04-08T06:15:33.663Z,5.78
2023-04-08T06:18:00.312Z,5.80
2023-04-08T06:20:27.349Z,5.85
2023-04-08T06:22:53.912Z,5.91
2023-04-08T06:25:20.443Z,5.94
2023-04-08T06:27:48.438Z,5.97
2023-04-08T06:30:15.132Z,6.03
2023-04-08T06:32:41.698Z,6.11
2023-04-08T06:35:08.599Z,6.18
2023-04-08T06:37:38.605Z,6.28
2023-04-08T06:40:06.565Z,6.33
2023-04-08T06:42:33.109Z,6.38
2023-04-08T06:44:59.750Z,6.46
2023-04-08T06:47:26.361Z,6.60
2023-04-08T06:49:53.135Z,6.70
2023-04-08T06:52:19.720Z,6.79
2023-04-08T06:54:46.577Z,6.86
2023-04-08T06:57:13.414Z,6.92
2023-04-08T06:59:40.048Z,6.99
2023-04-08T07:02:07.065Z,7.07
2023-04-08T07:04:33.629Z,7.13
2023-04-08T07:07:00.642Z,7.15
2023-04-08T07:09:27.269Z,7.17
2023-04-08T07:11:53.808Z,7.25
2023-04-08T07:14:20.572Z,7.35
2023-04-08T07:16:47.179Z,7.43
2023-04-08T07:19:13.756Z,7.50
2023-04-08T07:21:40.399Z,7.60
2023-04-08T07:24:07.287Z,7.70
2023-04-08T07:26:33.883Z,7.78
2023-04-08T07:29:00.637Z,7.88
2023-04-08T07:31:27.323Z,7.96
2023-04-08T07:33:53.958Z,8.08
2023-04-08T07:36:21.162Z,8.11
2023-04-08T07:38:48.031Z,8.16
2023-04-08T07:41:14.724Z,8.22
2023-04-08T07:43:41.447Z,8.30
2023-04-08T07:46:08.071Z,8.45
2023-04-08T07:48:34.954Z,8.58
2023-04-08T07:51:09.845Z,8.71
2023-04-08T07:53:37.546Z,8.77
2023-04-08T07:56:04.295Z,8.77
2023-04-08T07:58:32.182Z,8.82
2023-04-08T08:00:59.566Z,8.87
2023-04-08T08:03:26.576Z,8.97
2023-04-08T08:05:53.435Z,9.07
2023-04-08T08:08:20.033Z,9.12
2023-04-08T08:10:46.579Z,9.19
2023-04-08T08:13:17.105Z,9.27
2023-04-08T08:15:43.721Z,9.35
2023-04-08T08:18:10.624Z,9.47
2023-04-08T08:20:37.254Z,9.62
2023-04-08T08:23:03.796Z,9.70
2023-04-08T08:25:30.349Z,9.80
2023-04-08T08:27:56.981Z,9.81
2023-04-08T08:30:23.605Z,9.80
2023-04-08T08:32:52.187Z,9.78
2023-04-08T08:35:18.806Z,9.81
2023-04-08T08:37:45.425Z,9.86
2023-04-08T08:40:12.293Z,9.96
2023-04-08T08:42:39.350Z,10.06
2023-04-08T08:45:07.082Z,10.12
2023-04-08T08:47:33.880Z,10.18
2023-04-08T08:50:00.768Z,10.22
2023-04-08T08:52:27.302Z,10.30
2023-04-08T08:54:57.859Z,10.31
2023-04-08T08:57:24.416Z,10.20
2023-04-08T08:59:51.331Z,10.22
2023-04-08T09:02:32.151Z,10.29
2023-04-08T09:05:03.168Z,10.22
2023-04-08T09:07:31.199Z,10.17
2023-04-08T09:09:59.014Z,10.19
2023-04-08T09:12:28.122Z,10.11
2023-04-08T09:15:07.656Z,10.11
2023-04-08T09:17:35.207Z,10.09
2023-04-08T09:20:09.777Z,10.10
2023-04-08T09:22:55.497Z,10.17
2023-04-08T09:25:26.371Z,10.29
2023-04-08T09:27:53.951Z,10.45
2023-04-08T09:30:21.854Z,10.60
2023-04-08T09:32:52.339Z,10.69
2023-04-08T09:35:22.596Z,10.78
2023-04-08T09:37:50.459Z,10.81
2023-04-08T09:40:17.832Z,10.84
2023-04-08T09:42:45.696Z,10.82
2023-04-08T09:45:12.865Z,10.75
2023-04-08T09:47:44.578Z,10.77
2023-04-08T09:50:11.748Z,10.88
2023-04-08T09:52:44.222Z,10.99
2023-04-08T09:55:12.535Z,11.05
2023-04-08T09:57:57.854Z,11.20
2023-04-08T10:00:27.724Z,11.34
2023-04-08T10:03:12.978Z,11.45
2023-04-08T10:05:41.818Z,11.55
2023-04-08T10:08:08.590Z,11.55
2023-04-08T10:10:37.139Z,11.58
2023-04-08T10:13:04.616Z,11.67
2023-04-08T10:15:31.995Z,11.85
2023-04-08T10:18:08.030Z,12.01
2023-04-08T10:20:34.842Z,12.10
2023-04-08T10:23:01.995Z,12.20
2023-04-08T10:25:30.699Z,12.76
2023-04-08T10:27:57.562Z,13.83
2023-04-08T10:30:31.752Z,14.96
2023-04-08T10:33:00.054Z,16.04
2023-04-08T10:35:34.962Z,16.98
2023-04-08T10:38:02.105Z,17.70
2023-04-08T10:40:28.711Z,18.22
2023-04-08T10:42:58.801Z,18.49
2023-04-08T10:45:25.379Z,18.78
2023-04-08T10:47:52.294Z,19.41
2023-04-08T10:50:20.492Z,19.98
2023-04-08T10:52:50.922Z,20.41
2023-04-08T10:55:22.598Z,20.79
2023-04-08T10:57:50.126Z,21.07
2023-04-08T11:00:35.766Z,20.97
2023-04-08T11:03:11.969Z,20.06
2023-04-08T11:05:39.698Z,19.55
2023-04-08T11:08:06.439Z,19.36
2023-04-08T11:10:37.317Z,18.80
2023-04-08T11:13:06.568Z,18.05
2023-04-08T11:15:33.525Z,17.64
2023-04-08T11:18:00.683Z,17.90
2023-04-08T11:20:27.277Z,18.39
2023-04-08T11:22:53.871Z,19.08
2023-04-08T11:25:20.680Z,19.44
2023-04-08T11:27:47.637Z,19.24
2023-04-08T11:30:14.365Z,19.14
2023-04-08T11:32:41.226Z,18.84
2023-04-08T11:35:07.906Z,18.64
2023-04-08T11:37:38.326Z,18.85
2023-04-08T11:40:11.267Z,19.15
2023-04-08T11:42:38.159Z,19.58
2023-04-08T11:45:14.813Z,19.90
2023-04-08T11:47:41.837Z,20.34
2023-04-08T11:50:09.311Z,20.38
2023-04-08T11:52:42.073Z,20.40
2023-04-08T11:55:10.675Z,20.75
2023-04-08T11:57:37.724Z,20.96
2023-04-08T12:00:07.553Z,20.75
2023-04-08T12:02:34.304Z,20.69
2023-04-08T12:05:01.432Z,20.81
2023-04-08T12:07:28.185Z,20.94
2023-04-08T12:09:54.967Z,21.09
2023-04-08T12:12:21.581Z,21.48
2023-04-08T12:14:48.150Z,21.70
2023-04-08T12:17:14.723Z,21.74
2023-04-08T12:19:41.369Z,21.68
2023-04-08T12:22:07.897Z,21.73
2023-04-08T12:24:34.587Z,21.88
2023-04-08T12:27:02.533Z,22.00
2023-04-08T12:29:29.464Z,22.03
2023-04-08T12:31:56.135Z,22.10
2023-04-08T12:34:22.772Z,22.20
2023-04-08T12:36:49.915Z,22.26
2023-04-08T12:39:16.806Z,22.32
2023-04-08T12:41:43.373Z,22.34
2023-04-08T12:44:09.962Z,22.25
2023-04-08T12:46:36.597Z,22.10
2023-04-08T12:49:05.123Z,22.10
2023-04-08T12:51:32.381Z,22.04
2023-04-08T12:54:00.650Z,21.65
2023-04-08T12:56:27.254Z,21.56
2023-04-08T12:58:55.429Z,21.69
2023-04-08T13:01:22.177Z,21.76
2023-04-08T13:03:49.162Z,21.46
2023-04-08T13:06:16.170Z,20.47
2023-04-08T13:08:43.267Z,19.63
2023-04-08T13:11:09.858Z,19.23
2023-04-08T13:13:36.695Z,18.86
2023-04-08T13:16:03.290Z,18.48
2023-04-08T13:18:29.993Z,18.29
2023-04-08T13:20:58.110Z,18.00
2023-04-08T13:23:24.751Z,17.77
2023-04-08T13:25:51.625Z,17.62
2023-04-08T13:28:18.283Z,17.83
2023-04-08T13:30:44.844Z,18.27
2023-04-08T13:33:11.725Z,18.76
2023-04-08T13:35:38.320Z,19.17
2023-04-08T13:38:04.888Z,19.63
2023-04-08T13:40:31.856Z,19.85
2023-04-08T13:42:58.656Z,19.85
2023-04-08T13:45:25.421Z,19.73
2023-04-08T13:47:58.145Z,19.73
2023-04-08T13:50:24.832Z,19.74
2023-04-08T13:52:51.538Z,19.40
2023-04-08T13:55:18.158Z,18.73
2023-04-08T13:57:44.848Z,18.39
2023-04-08T14:00:11.951Z,18.26
2023-04-08T14:02:38.665Z,18.13
2023-04-08T14:05:05.544Z,18.03
2023-04-08T14:07:32.145Z,17.97
2023-04-08T14:09:58.709Z,17.61
2023-04-08T14:12:25.260Z,17.13
2023-04-08T14:14:51.804Z,16.70
2023-04-08T14:17:18.494Z,16.39
2023-04-08T14:19:45.060Z,16.31
2023-04-08T14:22:12.384Z,16.37
2023-04-08T14:24:38.957Z,16.65
2023-04-08T14:27:05.588Z,16.96
2023-04-08T14:29:32.238Z,17.23
2023-04-08T14:31:59.053Z,17.45
2023-04-08T14:34:25.882Z,17.48
2023-04-08T14:36:52.417Z,17.31
2023-04-08T14:39:18.964Z,17.18
2023-04-08T14:41:47.705Z,16.90
2023-04-08T14:44:14.254Z,16.61
2023-04-08T14:46:40.821Z,16.39
2023-04-08T14:49:07.467Z,16.12
2023-04-08T14:51:34.059Z,15.79
2023-04-08T14:54:02.079Z,15.48
2023-04-08T14:56:28.664Z,15.17
2023-04-08T14:58:55.806Z,14.99
2023-04-08T15:01:22.410Z,14.91
2023-04-08T15:03:49.077Z,14.81
2023-04-08T15:06:17.888Z,14.67
2023-04-08T15:08:45.740Z,14.53
2023-04-08T15:11:12.349Z,14.45
2023-04-08T15:13:38.887Z,14.37
2023-04-08T15:16:06.000Z,14.30
2023-04-08T15:18:32.593Z,14.22
2023-04-08T15:20:59.165Z,14.19
2023-04-08T15:23:25.670Z,14.10
2023-04-08T15:25:52.239Z,14.01
2023-04-08T15:28:18.808Z,13.93
2023-04-08T15:30:45.548Z,13.82
2023-04-08T15:33:12.178Z,13.63
2023-04-08T15:35:39.000Z,13.52
2023-04-08T15:38:05.617Z,13.39
2023-04-08T15:40:35.983Z,13.29
2023-04-08T15:43:03.851Z,13.23
2023-04-08T15:45:30.626Z,13.17
2023-04-08T15:47:57.301Z,13.14
2023-04-08T15:50:23.897Z,13.09
2023-04-08T15:52:50.511Z,13.05
2023-04-08T15:55:17.065Z,12.95
2023-04-08T15:57:43.609Z,12.87
2023-04-08T16:00:11.159Z,12.82
2023-04-08T16:02:37.934Z,12.75
2023-04-08T16:05:04.741Z,12.70
2023-04-08T16:07:31.337Z,12.62
2023-04-08T16:09:59.093Z,12.56
2023-04-08T16:12:25.892Z,12.49
2023-04-08T16:14:52.525Z,12.43
2023-04-08T16:17:19.172Z,12.34
2023-04-08T16:19:45.713Z,12.29
2023-04-08T16:22:12.271Z,12.22
2023-04-08T16:24:38.801Z,12.17
2023-04-08T16:27:05.498Z,12.15
2023-04-08T16:29:32.599Z,12.12
2023-04-08T16:31:59.176Z,12.11
2023-04-08T16:34:25.763Z,12.09
2023-04-08T16:36:52.793Z,12.05
2023-04-08T16:39:19.397Z,12.00
2023-04-08T16:41:45.933Z,11.96
2023-04-08T16:44:12.586Z,11.89
2023-04-08T16:46:39.219Z,11.86
2023-04-08T16:49:05.927Z,11.84
2023-04-08T16:51:32.748Z,11.83
2023-04-08T16:53:59.984Z,11.78
2023-04-08T16:56:27.116Z,11.74
2023-04-08T16:58:53.671Z,11.71
2023-04-08T17:01:20.799Z,11.67
2023-04-08T17:03:48.752Z,11.59
2023-04-08T17:06:15.534Z,11.55
2023-04-08T17:08:45.138Z,11.50
2023-04-08T17:11:13.164Z,11.43
2023-04-08T17:13:41.296Z,11.41
2023-04-08T17:16:11.608Z,11.36
2023-04-08T17:18:38.173Z,11.31
2023-04-08T17:21:04.898Z,11.28
2023-04-08T17:23:31.617Z,11.24
2023-04-08T17:25:58.127Z,11.20
2023-04-08T17:28:24.745Z,11.17
2023-04-08T17:30:51.480Z,11.12
2023-04-08T17:33:18.095Z,11.09
2023-04-08T17:35:44.672Z,11.07
2023-04-08T17:38:11.226Z,11.04
2023-04-08T17:40:38.613Z,11.02
2023-04-08T17:43:05.169Z,10.99
2023-04-08T17:45:31.818Z,10.95
2023-04-08T17:47:58.802Z,10.92
2023-04-08T17:50:25.609Z,10.89
2023-04-08T17:52:52.238Z,10.86
2023-04-08T17:55:18.820Z,10.82
2023-04-08T17:57:45.461Z,10.81
2023-04-08T18:00:12.203Z,10.78
2023-04-08T18:02:39.007Z,10.72
2023-04-08T18:05:06.571Z,10.67
2023-04-08T18:07:33.394Z,10.62
2023-04-08T18:09:59.970Z,10.57
2023-04-08T18:12:28.255Z,10.50
2023-04-08T18:14:54.856Z,10.48
2023-04-08T18:17:21.488Z,10.45
2023-04-08T18:19:48.116Z,10.41
2023-04-08T18:22:14.731Z,10.39
2023-04-08T18:24:41.320Z,10.35
2023-04-08T18:27:08.553Z,10.31
2023-04-08T18:29:35.160Z,10.27
2023-04-08T18:32:01.747Z,10.21
2023-04-08T18:34:28.609Z,10.15
2023-04-08T18:36:55.161Z,10.09
2023-04-08T18:39:21.944Z,10.05
2023-04-08T18:41:48.525Z,10.00
2023-04-08T18:44:15.659Z,9.98
2023-04-08T18:46:42.299Z,9.94
2023-04-08T18:49:08.902Z,9.91
2023-04-08T18:51:35.454Z,9.90
2023-04-08T18:54:01.992Z,9.88
2023-04-08T18:56:28.686Z,9.85
2023-04-08T18:58:55.322Z,9.82
2023-04-08T19:01:22.161Z,9.82
2023-04-08T19:03:48.918Z,9.82
2023-04-08T19:06:17.375Z,9.79
2023-04-08T19:08:44.261Z,9.80
2023-04-08T19:11:11.673Z,9.78
2023-04-08T19:13:38.205Z,9.75
2023-04-08T19:16:05.119Z,9.76
2023-04-08T19:18:31.759Z,9.72
2023-04-08T19:20:58.376Z,9.72
2023-04-08T19:23:24.923Z,9.72
2023-04-08T19:25:51.492Z,9.71
2023-04-08T19:28:18.040Z,9.68
2023-04-08T19:30:44.633Z,9.68
2023-04-08T19:33:11.250Z,9.67
2023-04-08T19:35:38.119Z,9.67
2023-04-08T19:38:05.700Z,9.64
2023-04-08T19:40:32.276Z,9.60
2023-04-08T19:42:58.849Z,9.59
2023-04-08T19:45:25.452Z,9.60
2023-04-08T19:47:52.085Z,9.57
2023-04-08T19:50:21.197Z,9.53
2023-04-08T19:52:47.770Z,9.50
2023-04-08T19:55:14.991Z,9.51
2023-04-08T19:57:41.642Z,9.47
2023-04-08T20:00:08.505Z,9.43
2023-04-08T20:02:35.328Z,9.41
2023-04-08T20:05:02.381Z,9.40
2023-04-08T20:07:30.054Z,9.34
2023-04-08T20:09:56.652Z,9.30
2023-04-08T20:12:23.252Z,9.29
2023-04-08T20:14:49.778Z,9.26
2023-04-08T20:17:17.965Z,9.25
2023-04-08T20:19:44.654Z,9.21
2023-04-08T20:22:11.240Z,9.21
2023-04-08T20:24:37.811Z,9.21
2023-04-08T20:27:04.469Z,9.20
2023-04-08T20:29:31.026Z,9.18
2023-04-08T20:31:57.847Z,9.14
2023-04-08T20:34:24.452Z,9.13
2023-04-08T20:36:51.048Z,9.10
2023-04-08T20:39:17.988Z,9.05
2023-04-08T20:41:44.618Z,9.00
2023-04-08T20:44:11.175Z,9.01
2023-04-08T20:46:37.904Z,8.99
2023-04-08T20:49:05.042Z,8.92
2023-04-08T20:51:33.818Z,8.93
2023-04-08T20:54:00.586Z,8.90
2023-04-08T20:56:27.334Z,8.84
2023-04-08T20:58:54.249Z,8.84
2023-04-08T21:01:21.669Z,8.81
2023-04-08T21:03:49.057Z,8.70
2023-04-08T21:06:17.004Z,8.72
2023-04-08T21:08:43.663Z,8.69
2023-04-08T21:11:10.243Z,8.68
2023-04-08T21:13:37.165Z,8.63
2023-04-08T21:16:03.965Z,8.59
2023-04-08T21:18:30.503Z,8.58
2023-04-08T21:20:57.323Z,8.52
2023-04-08T21:23:23.836Z,8.46
2023-04-08T21:25:50.465Z,8.42
2023-04-08T21:28:17.500Z,8.43
2023-04-08T21:30:44.114Z,8.39
2023-04-08T21:33:10.806Z,8.37
2023-04-08T21:35:37.487Z,8.36
2023-04-08T21:38:04.139Z,8.33
2023-04-08T21:40:30.681Z,8.33
2023-04-08T21:42:57.246Z,8.29
2023-04-08T21:45:24.790Z,8.27
2023-04-08T21:47:51.372Z,8.25
2023-04-08T21:50:17.957Z,8.22
2023-04-08T21:52:44.553Z,8.21
2023-04-08T21:55:11.150Z,8.19
2023-04-08T21:57:39.350Z,8.16
2023-04-08T22:00:13.158Z,8.13
2023-04-08T22:02:42.646Z,8.08
2023-04-08T22:05:09.613Z,8.07
2023-04-08T22:07:36.347Z,8.05
2023-04-08T22:10:03.093Z,7.99
2023-04-08T22:12:30.735Z,7.99
2023-04-08T22:14:57.408Z,7.95
2023-04-08T22:17:24.102Z,7.91
2023-04-08T22:19:50.846Z,7.91
2023-04-08T22:22:17.426Z,7.88
2023-04-08T22:24:44.168Z,7.87
2023-04-08T22:27:10.970Z,7.81
2023-04-08T22:29:37.539Z,7.80
2023-04-08T22:32:04.198Z,7.79
2023-04-08T22:34:30.824Z,7.78
2023-04-08T22:36:57.372Z,7.75
2023-04-08T22:39:26.154Z,7.74
2023-04-08T22:41:52.726Z,7.70
2023-04-08T22:44:19.274Z,7.67
2023-04-08T22:46:46.031Z,7.67
2023-04-08T22:49:12.641Z,7.63
2023-04-08T22:51:39.170Z,7.62
2023-04-08T22:54:05.736Z,7.58
2023-04-08T22:56:32.340Z,7.57
2023-04-08T22:58:58.904Z,7.54
2023-04-08T23:01:25.517Z,7.50
2023-04-08T23:03:52.188Z,7.44
2023-04-08T23:06:18.943Z,7.38
2023-04-08T23:08:45.538Z,7.33
2023-04-08T23:11:12.090Z,7.31
2023-04-08T23:13:38.619Z,7.27
2023-04-08T23:16:05.632Z,7.22
2023-04-08T23:18:32.155Z,7.19
2023-04-08T23:20:58.728Z,7.20
2023-04-08T23:23:25.535Z,7.17
2023-04-08T23:25:54.956Z,7.14
2023-04-08T23:28:22.161Z,7.13
2023-04-08T23:30:48.765Z,7.11
2023-04-08T23:33:15.370Z,7.12
2023-04-08T23:35:42.232Z,7.11
2023-04-08T23:38:08.884Z,7.06
2023-04-08T23:40:35.499Z,7.04
2023-04-08T23:43:02.022Z,7.04
2023-04-08T23:45:28.605Z,7.04
2023-04-08T23:47:55.251Z,7.02
2023-04-08T23:50:23.078Z,7.02
2023-04-08T23:52:51.281Z,7.00
2023-04-08T23:55:17.855Z,7.01
2023-04-08T23:57:44.438Z,6.97
